sensor_id;sensor_type;location;lat;lon;timestamp;P1;durP1;ratioP1;P2;durP2;ratioP2
16593;SDS011;8410;52.532;13.336;2022-08-01T00:01:14;4.28;;;3.83;;
16593;SDS011;8410;52.532;13.336;2022-08-01T00:03:42;3.72;;;3.40;;
16593;SDS011;8410;52.532;13.336;2022-08-01T00:06:12;5.20;;;3.83;;
16593;SDS011;8410;52.532;13.336;2022-08-01T00:08:40;4.13;;;3.55;;
16593;SDS011;8410;52.532;13.336;2022-08-01T00:11:07;8.07;;;3.65;;
16593;SDS011;8410;52.532;13.336;2022-08-01T00:13:36;5.75;;;3.63;;
16593;SDS011;8410;52.532;13.336;2022-08-01T00:16:04;4.35;;;3.83;;
16593;SDS011;8410;52.532;13.336;2022-08-01T00:18:32;4.20;;;3.88;;
16593;SDS011;8410;52.532;13.336;2022-08-01T00:21:00;6.20;;;4.00;;
16593;SDS011;8410;52.532;13.336;2022-08-01T00:23:30;3.95;;;3.65;;
16593;SDS011;8410;52.532;13.336;2022-08-01T00:25:58;5.43;;;4.03;;
16593;SDS011;8410;52.532;13.336;2022-08-01T00:28:26;7.40;;;3.90;;
16593;SDS011;8410;52.532;13.336;2022-08-01T00:30:54;5.05;;;4.57;;
16593;SDS011;8410;52.532;13.336;2022-08-01T00:33:22;4.78;;;4.07;;
16593;SDS011;8410;52.532;13.336;2022-08-01T00:35:50;6.22;;;3.97;;
16593;SDS011;8410;52.532;13.336;2022-08-01T00:38:18;4.20;;;3.78;;
16593;SDS011;8410;52.532;13.336;2022-08-01T00:40:47;4.63;;;4.22;;
16593;SDS011;8410;52.532;13.336;2022-08-01T00:43:17;4.95;;;4.32;;
16593;SDS011;8410;52.532;13.336;2022-08-01T00:45:45;8.23;;;4.68;;
16593;SDS011;8410;52.532;13.336;2022-08-01T00:48:13;4.68;;;4.28;;
16593;SDS011;8410;52.532;13.336;2022-08-01T00:50:41;5.63;;;4.40;;
16593;SDS011;8410;52.532;13.336;2022-08-01T00:53:09;6.78;;;4.70;;
16593;SDS011;8410;52.532;13.336;2022-08-01T00:55:44;4.53;;;4.13;;
16593;SDS011;8410;52.532;13.336;2022-08-01T00:58:13;4.93;;;4.43;;
16593;SDS011;8410;52.532;13.336;2022-08-01T01:00:43;4.53;;;4.13;;
16593;SDS011;8410;52.532;13.336;2022-08-01T01:03:18;5.78;;;4.47;;
16593;SDS011;8410;52.532;13.336;2022-08-01T01:06:08;5.03;;;4.25;;
16593;SDS011;8410;52.532;13.336;2022-08-01T01:08:50;4.97;;;4.57;;
16593;SDS011;8410;52.532;13.336;2022-08-01T01:11:35;4.70;;;4.15;;
16593;SDS011;8410;52.532;13.336;2022-08-01T01:14:16;5.40;;;4.90;;
16593;SDS011;8410;52.532;13.336;2022-08-01T01:16:57;4.80;;;4.30;;
16593;SDS011;8410;52.532;13.336;2022-08-01T01:19:30;6.43;;;4.53;;
16593;SDS011;8410;52.532;13.336;2022-08-01T01:22:12;4.40;;;4.03;;
16593;SDS011;8410;52.532;13.336;2022-08-01T01:24:57;4.97;;;4.13;;
16593;SDS011;8410;52.532;13.336;2022-08-01T01:27:49;5.20;;;4.65;;
16593;SDS011;8410;52.532;13.336;2022-08-01T01:30:30;7.43;;;6.82;;
16593;SDS011;8410;52.532;13.336;2022-08-01T01:33:01;5.10;;;4.60;;
16593;SDS011;8410;52.532;13.336;2022-08-01T01:35:36;4.60;;;4.20;;
16593;SDS011;8410;52.532;13.336;2022-08-01T01:38:13;5.43;;;4.20;;
16593;SDS011;8410;52.532;13.336;2022-08-01T01:40:45;5.07;;;4.68;;
16593;SDS011;8410;52.532;13.336;2022-08-01T01:43:15;4.70;;;4.22;;
16593;SDS011;8410;52.532;13.336;2022-08-01T01:45:47;5.60;;;4.63;;
16593;SDS011;8410;52.532;13.336;2022-08-01T01:48:18;5.07;;;4.57;;
16593;SDS011;8410;52.532;13.336;2022-08-01T01:50:51;4.80;;;4.20;;
16593;SDS011;8410;52.532;13.336;2022-08-01T01:53:21;5.10;;;4.35;;
16593;SDS011;8410;52.532;13.336;2022-08-01T01:55:51;4.72;;;4.32;;
16593;SDS011;8410;52.532;13.336;2022-08-01T01:58:21;4.88;;;4.38;;
16593;SDS011;8410;52.532;13.336;2022-08-01T02:00:52;4.85;;;4.28;;
16593;SDS011;8410;52.532;13.336;2022-08-01T02:03:28;5.53;;;4.30;;
16593;SDS011;8410;52.532;13.336;2022-08-01T02:05:58;5.03;;;4.53;;
16593;SDS011;8410;52.532;13.336;2022-08-01T02:08:29;5.10;;;4.60;;
16593;SDS011;8410;52.532;13.336;2022-08-01T02:10:59;5.05;;;4.55;;
16593;SDS011;8410;52.532;13.336;2022-08-01T02:13:46;5.68;;;4.60;;
16593;SDS011;8410;52.532;13.336;2022-08-01T02:16:22;4.50;;;4.05;;
16593;SDS011;8410;52.532;13.336;2022-08-01T02:18:54;5.13;;;4.72;;
16593;SDS011;8410;52.532;13.336;2022-08-01T02:21:23;5.53;;;4.22;;
16593;SDS011;8410;52.532;13.336;2022-08-01T02:24:00;5.05;;;4.60;;
16593;SDS011;8410;52.532;13.336;2022-08-01T02:26:41;5.05;;;4.53;;
16593;SDS011;8410;52.532;13.336;2022-08-01T02:29:15;5.20;;;4.70;;
16593;SDS011;8410;52.532;13.336;2022-08-01T02:31:51;4.95;;;4.53;;
16593;SDS011;8410;52.532;13.336;2022-08-01T02:34:22;5.05;;;4.68;;
16593;SDS011;8410;52.532;13.336;2022-08-01T02:36:58;5.72;;;5.00;;
16593;SDS011;8410;52.532;13.336;2022-08-01T02:39:28;4.97;;;4.57;;
16593;SDS011;8410;52.532;13.336;2022-08-01T02:42:00;8.57;;;4.85;;
16593;SDS011;8410;52.532;13.336;2022-08-01T02:44:35;5.45;;;4.95;;
16593;SDS011;8410;52.532;13.336;2022-08-01T02:47:10;5.15;;;4.75;;
16593;SDS011;8410;52.532;13.336;2022-08-01T02:49:42;4.93;;;4.43;;
16593;SDS011;8410;52.532;13.336;2022-08-01T02:52:20;5.13;;;4.72;;
16593;SDS011;8410;52.532;13.336;2022-08-01T02:54:53;5.68;;;5.10;;
16593;SDS011;8410;52.532;13.336;2022-08-01T02:57:24;5.70;;;5.20;;
16593;SDS011;8410;52.532;13.336;2022-08-01T03:00:14;5.43;;;5.03;;
16593;SDS011;8410;52.532;13.336;2022-08-01T03:02:45;5.47;;;4.97;;
16593;SDS011;8410;52.532;13.336;2022-08-01T03:05:21;5.82;;;5.32;;
16593;SDS011;8410;52.532;13.336;2022-08-01T03:07:53;5.32;;;4.82;;
16593;SDS011;8410;52.532;13.336;2022-08-01T03:10:29;5.88;;;5.30;;
16593;SDS011;8410;52.532;13.336;2022-08-01T03:13:00;5.40;;;5.00;;
16593;SDS011;8410;52.532;13.336;2022-08-01T03:15:32;6.00;;;5.50;;
16593;SDS011;8410;52.532;13.336;2022-08-01T03:18:06;5.10;;;4.68;;
16593;SDS011;8410;52.532;13.336;2022-08-01T03:20:38;5.90;;;5.30;;
16593;SDS011;8410;52.532;13.336;2022-08-01T03:23:11;5.50;;;5.07;;
16593;SDS011;8410;52.532;13.336;2022-08-01T03:25:41;5.80;;;5.40;;
16593;SDS011;8410;52.532;13.336;2022-08-01T03:28:13;5.90;;;5.40;;
16593;SDS011;8410;52.532;13.336;2022-08-01T03:30:43;5.80;;;5.30;;
16593;SDS011;8410;52.532;13.336;2022-08-01T03:33:15;5.70;;;5.28;;
16593;SDS011;8410;52.532;13.336;2022-08-01T03:35:45;5.80;;;5.30;;
16593;SDS011;8410;52.532;13.336;2022-08-01T03:38:21;6.75;;;6.15;;
16593;SDS011;8410;52.532;13.336;2022-08-01T03:40:53;6.00;;;5.30;;
16593;SDS011;8410;52.532;13.336;2022-08-01T03:43:30;6.10;;;5.70;;
16593;SDS011;8410;52.532;13.336;2022-08-01T03:46:04;5.40;;;5.00;;
16593;SDS011;8410;52.532;13.336;2022-08-01T03:48:39;5.30;;;4.90;;
16593;SDS011;8410;52.532;13.336;2022-08-01T03:51:15;5.60;;;5.10;;
16593;SDS011;8410;52.532;13.336;2022-08-01T03:53:45;5.22;;;4.90;;
16593;SDS011;8410;52.532;13.336;2022-08-01T03:56:18;6.10;;;5.50;;
16593;SDS011;8410;52.532;13.336;2022-08-01T03:58:47;6.63;;;5.95;;
16593;SDS011;8410;52.532;13.336;2022-08-01T04:01:17;5.82;;;5.32;;
16593;SDS011;8410;52.532;13.336;2022-08-01T04:03:47;6.38;;;5.85;;
16593;SDS011;8410;52.532;13.336;2022-08-01T04:06:15;8.77;;;6.57;;
16593;SDS011;8410;52.532;13.336;2022-08-01T04:08:43;6.38;;;5.78;;
16593;SDS011;8410;52.532;13.336;2022-08-01T04:11:22;9.55;;;7.25;;
16593;SDS011;8410;52.532;13.336;2022-08-01T04:13:52;8.15;;;7.35;;
16593;SDS011;8410;52.532;13.336;2022-08-01T04:16:22;8.52;;;7.75;;
16593;SDS011;8410;52.532;13.336;2022-08-01T04:18:52;9.90;;;7.63;;
16593;SDS011;8410;52.532;13.336;2022-08-01T04:21:20;10.13;;;8.95;;
16593;SDS011;8410;52.532;13.336;2022-08-01T04:23:54;10.20;;;9.20;;
16593;SDS011;8410;52.532;13.336;2022-08-01T04:26:27;11.25;;;10.05;;
16593;SDS011;8410;52.532;13.336;2022-08-01T04:28:58;12.82;;;11.10;;
16593;SDS011;8410;52.532;13.336;2022-08-01T04:31:30;12.45;;;11.15;;
16593;SDS011;8410;52.532;13.336;2022-08-01T04:34:01;12.80;;;9.98;;
16593;SDS011;8410;52.532;13.336;2022-08-01T04:36:33;11.40;;;10.13;;
16593;SDS011;8410;52.532;13.336;2022-08-01T04:39:05;12.23;;;11.07;;
16593;SDS011;8410;52.532;13.336;2022-08-01T04:41:34;11.10;;;9.82;;
16593;SDS011;8410;52.532;13.336;2022-08-01T04:44:04;10.95;;;9.95;;
16593;SDS011;8410;52.532;13.336;2022-08-01T04:46:33;10.48;;;9.48;;
16593;SDS011;8410;52.532;13.336;2022-08-01T04:49:05;13.05;;;10.30;;
16593;SDS011;8410;52.532;13.336;2022-08-01T04:51:35;11.63;;;10.52;;
16593;SDS011;8410;52.532;13.336;2022-08-01T04:54:03;11.98;;;10.07;;
16593;SDS011;8410;52.532;13.336;2022-08-01T04:56:33;13.25;;;11.98;;
16593;SDS011;8410;52.532;13.336;2022-08-01T04:59:01;12.38;;;11.25;;
16593;SDS011;8410;52.532;13.336;2022-08-01T05:01:49;12.50;;;11.32;;
16593;SDS011;8410;52.532;13.336;2022-08-01T05:04:19;12.90;;;11.60;;
16593;SDS011;8410;52.532;13.336;2022-08-01T05:06:47;12.88;;;11.57;;
16593;SDS011;8410;52.532;13.336;2022-08-01T05:09:15;12.80;;;11.57;;
16593;SDS011;8410;52.532;13.336;2022-08-01T05:11:43;12.80;;;11.65;;
16593;SDS011;8410;52.532;13.336;2022-08-01T05:14:10;11.20;;;10.10;;
16593;SDS011;8410;52.532;13.336;2022-08-01T05:16:38;12.02;;;10.98;;
16593;SDS011;8410;52.532;13.336;2022-08-01T05:19:07;12.02;;;11.02;;
16593;SDS011;8410;52.532;13.336;2022-08-01T05:21:37;11.48;;;10.38;;
16593;SDS011;8410;52.532;13.336;2022-08-01T05:24:05;11.52;;;10.52;;
16593;SDS011;8410;52.532;13.336;2022-08-01T05:26:33;11.00;;;10.07;;
16593;SDS011;8410;52.532;13.336;2022-08-01T05:29:02;11.45;;;10.43;;
16593;SDS011;8410;52.532;13.336;2022-08-01T05:31:35;12.30;;;11.10;;
16593;SDS011;8410;52.532;13.336;2022-08-01T05:34:07;10.88;;;9.88;;
16593;SDS011;8410;52.532;13.336;2022-08-01T05:36:42;10.90;;;9.98;;
16593;SDS011;8410;52.532;13.336;2022-08-01T05:39:11;10.35;;;9.32;;
16593;SDS011;8410;52.532;13.336;2022-08-01T05:41:59;10.05;;;9.18;;
16593;SDS011;8410;52.532;13.336;2022-08-01T05:44:33;10.68;;;9.68;;
16593;SDS011;8410;52.532;13.336;2022-08-01T05:47:04;9.90;;;9.13;;
16593;SDS011;8410;52.532;13.336;2022-08-01T05:49:37;11.07;;;9.65;;
16593;SDS011;8410;52.532;13.336;2022-08-01T05:52:06;9.40;;;8.60;;
16593;SDS011;8410;52.532;13.336;2022-08-01T05:54:34;9.68;;;8.88;;
16593;SDS011;8410;52.532;13.336;2022-08-01T05:57:02;9.43;;;8.63;;
16593;SDS011;8410;52.532;13.336;2022-08-01T05:59:30;9.38;;;8.57;;
16593;SDS011;8410;52.532;13.336;2022-08-01T06:01:59;9.25;;;8.45;;
16593;SDS011;8410;52.532;13.336;2022-08-01T06:04:27;8.48;;;7.70;;
16593;SDS011;8410;52.532;13.336;2022-08-01T06:06:55;9.20;;;8.35;;
16593;SDS011;8410;52.532;13.336;2022-08-01T06:09:24;8.65;;;7.95;;
16593;SDS011;8410;52.532;13.336;2022-08-01T06:11:52;9.00;;;8.23;;
16593;SDS011;8410;52.532;13.336;2022-08-01T06:14:20;9.02;;;8.20;;
16593;SDS011;8410;52.532;13.336;2022-08-01T06:16:48;9.18;;;7.60;;
16593;SDS011;8410;52.532;13.336;2022-08-01T06:19:15;6.35;;;5.85;;
16593;SDS011;8410;52.532;13.336;2022-08-01T06:21:43;6.30;;;5.70;;
16593;SDS011;8410;52.532;13.336;2022-08-01T06:24:11;7.57;;;6.22;;
16593;SDS011;8410;52.532;13.336;2022-08-01T06:26:41;5.93;;;5.28;;
16593;SDS011;8410;52.532;13.336;2022-08-01T06:29:08;5.40;;;4.93;;
16593;SDS011;8410;52.532;13.336;2022-08-01T06:31:37;7.97;;;4.93;;
16593;SDS011;8410;52.532;13.336;2022-08-01T06:34:05;7.03;;;4.90;;
16593;SDS011;8410;52.532;13.336;2022-08-01T06:36:33;4.50;;;4.10;;
16593;SDS011;8410;52.532;13.336;2022-08-01T06:39:00;4.55;;;3.95;;
16593;SDS011;8410;52.532;13.336;2022-08-01T06:41:28;4.13;;;3.72;;
16593;SDS011;8410;52.532;13.336;2022-08-01T06:43:58;4.43;;;3.83;;
16593;SDS011;8410;52.532;13.336;2022-08-01T06:46:28;3.80;;;3.50;;
16593;SDS011;8410;52.532;13.336;2022-08-01T06:49:00;4.18;;;3.65;;
16593;SDS011;8410;52.532;13.336;2022-08-01T06:51:28;5.85;;;3.35;;
16593;SDS011;8410;52.532;13.336;2022-08-01T06:53:55;3.70;;;3.50;;
16593;SDS011;8410;52.532;13.336;2022-08-01T06:56:23;3.33;;;3.00;;
16593;SDS011;8410;52.532;13.336;2022-08-01T06:58:51;4.28;;;3.97;;
16593;SDS011;8410;52.532;13.336;2022-08-01T07:01:23;6.57;;;3.45;;
16593;SDS011;8410;52.532;13.336;2022-08-01T07:03:51;5.38;;;3.80;;
16593;SDS011;8410;52.532;13.336;2022-08-01T07:06:20;5.25;;;3.90;;
16593;SDS011;8410;52.532;13.336;2022-08-01T07:08:50;4.55;;;3.00;;
16593;SDS011;8410;52.532;13.336;2022-08-01T07:11:18;5.13;;;4.15;;
16593;SDS011;8410;52.532;13.336;2022-08-01T07:13:46;4.90;;;3.30;;
16593;SDS011;8410;52.532;13.336;2022-08-01T07:16:15;5.60;;;4.13;;
16593;SDS011;8410;52.532;13.336;2022-08-01T07:18:45;4.55;;;4.13;;
16593;SDS011;8410;52.532;13.336;2022-08-01T07:21:13;4.63;;;4.18;;
16593;SDS011;8410;52.532;13.336;2022-08-01T07:24:01;5.53;;;4.20;;
16593;SDS011;8410;52.532;13.336;2022-08-01T07:26:38;5.40;;;3.80;;
16593;SDS011;8410;52.532;13.336;2022-08-01T07:29:19;4.60;;;4.20;;
16593;SDS011;8410;52.532;13.336;2022-08-01T07:31:49;5.47;;;5.03;;
16593;SDS011;8410;52.532;13.336;2022-08-01T07:34:18;6.60;;;4.75;;
16593;SDS011;8410;52.532;13.336;2022-08-01T07:36:46;4.13;;;3.67;;
16593;SDS011;8410;52.532;13.336;2022-08-01T07:39:14;3.83;;;3.22;;
16593;SDS011;8410;52.532;13.336;2022-08-01T07:41:42;3.60;;;2.95;;
16593;SDS011;8410;52.532;13.336;2022-08-01T07:44:30;3.63;;;3.10;;
16593;SDS011;8410;52.532;13.336;2022-08-01T07:46:58;3.45;;;3.10;;
16593;SDS011;8410;52.532;13.336;2022-08-01T07:49:27;7.00;;;3.53;;
16593;SDS011;8410;52.532;13.336;2022-08-01T07:51:55;7.45;;;3.90;;
16593;SDS011;8410;52.532;13.336;2022-08-01T07:54:29;9.02;;;4.47;;
16593;SDS011;8410;52.532;13.336;2022-08-01T07:56:59;6.40;;;4.75;;
16593;SDS011;8410;52.532;13.336;2022-08-01T07:59:27;10.13;;;4.68;;
16593;SDS011;8410;52.532;13.336;2022-08-01T08:01:55;7.47;;;5.00;;
16593;SDS011;8410;52.532;13.336;2022-08-01T08:04:23;5.53;;;5.03;;
16593;SDS011;8410;52.532;13.336;2022-08-01T08:06:52;4.82;;;4.43;;
16593;SDS011;8410;52.532;13.336;2022-08-01T08:09:20;6.25;;;4.60;;
16593;SDS011;8410;52.532;13.336;2022-08-01T08:11:49;5.45;;;5.05;;
16593;SDS011;8410;52.532;13.336;2022-08-01T08:14:17;4.28;;;3.90;;
16593;SDS011;8410;52.532;13.336;2022-08-01T08:16:45;4.00;;;3.70;;
16593;SDS011;8410;52.532;13.336;2022-08-01T08:19:13;5.40;;;4.10;;
16593;SDS011;8410;52.532;13.336;2022-08-01T08:21:41;4.22;;;3.45;;
16593;SDS011;8410;52.532;13.336;2022-08-01T08:24:11;4.47;;;4.07;;
16593;SDS011;8410;52.532;13.336;2022-08-01T08:26:53;4.55;;;4.25;;
16593;SDS011;8410;52.532;13.336;2022-08-01T08:29:24;4.47;;;4.18;;
16593;SDS011;8410;52.532;13.336;2022-08-01T08:31:53;4.90;;;4.50;;
16593;SDS011;8410;52.532;13.336;2022-08-01T08:34:22;4.38;;;4.05;;
16593;SDS011;8410;52.532;13.336;2022-08-01T08:36:51;4.30;;;3.90;;
16593;SDS011;8410;52.532;13.336;2022-08-01T08:39:22;4.00;;;3.70;;
16593;SDS011;8410;52.532;13.336;2022-08-01T08:41:50;6.93;;;4.30;;
16593;SDS011;8410;52.532;13.336;2022-08-01T08:44:18;5.70;;;4.10;;
16593;SDS011;8410;52.532;13.336;2022-08-01T08:46:47;3.58;;;3.20;;
16593;SDS011;8410;52.532;13.336;2022-08-01T08:49:19;3.20;;;2.90;;
16593;SDS011;8410;52.532;13.336;2022-08-01T08:51:51;7.38;;;3.60;;
16593;SDS011;8410;52.532;13.336;2022-08-01T08:54:22;3.58;;;2.85;;
16593;SDS011;8410;52.532;13.336;2022-08-01T08:56:57;5.10;;;2.95;;
16593;SDS011;8410;52.532;13.336;2022-08-01T08:59:27;4.95;;;3.03;;
16593;SDS011;8410;52.532;13.336;2022-08-01T09:01:56;3.15;;;2.20;;
16593;SDS011;8410;52.532;13.336;2022-08-01T09:04:25;3.22;;;2.50;;
16593;SDS011;8410;52.532;13.336;2022-08-01T09:06:53;2.75;;;2.55;;
16593;SDS011;8410;52.532;13.336;2022-08-01T09:09:23;2.40;;;1.40;;
16593;SDS011;8410;52.532;13.336;2022-08-01T09:11:51;6.50;;;1.80;;
16593;SDS011;8410;52.532;13.336;2022-08-01T09:14:23;7.50;;;2.15;;
16593;SDS011;8410;52.532;13.336;2022-08-01T09:16:59;8.85;;;1.90;;
16593;SDS011;8410;52.532;13.336;2022-08-01T09:19:35;2.28;;;1.80;;
16593;SDS011;8410;52.532;13.336;2022-08-01T09:22:07;1.80;;;1.70;;
16593;SDS011;8410;52.532;13.336;2022-08-01T09:24:39;1.85;;;1.75;;
16593;SDS011;8410;52.532;13.336;2022-08-01T09:27:15;1.92;;;1.83;;
16593;SDS011;8410;52.532;13.336;2022-08-01T09:29:50;1.70;;;1.60;;
16593;SDS011;8410;52.532;13.336;2022-08-01T09:32:27;2.35;;;1.88;;
16593;SDS011;8410;52.532;13.336;2022-08-01T09:38:11;2.40;;;2.20;;
16593;SDS011;8410;52.532;13.336;2022-08-01T09:40:49;3.25;;;2.35;;
16593;SDS011;8410;52.532;13.336;2022-08-01T09:43:21;3.78;;;1.90;;
16593;SDS011;8410;52.532;13.336;2022-08-01T09:45:52;2.80;;;2.60;;
16593;SDS011;8410;52.532;13.336;2022-08-01T09:48:23;2.88;;;2.65;;
16593;SDS011;8410;52.532;13.336;2022-08-01T09:50:55;2.55;;;2.42;;
16593;SDS011;8410;52.532;13.336;2022-08-01T09:53:42;2.50;;;2.30;;
16593;SDS011;8410;52.532;13.336;2022-08-01T09:56:19;4.35;;;2.13;;
16593;SDS011;8410;52.532;13.336;2022-08-01T09:58:53;4.35;;;2.10;;
16593;SDS011;8410;52.532;13.336;2022-08-01T10:01:27;2.40;;;2.20;;
16593;SDS011;8410;52.532;13.336;2022-08-01T10:04:07;3.65;;;2.40;;
16593;SDS011;8410;52.532;13.336;2022-08-01T10:06:40;2.33;;;2.20;;
16593;SDS011;8410;52.532;13.336;2022-08-01T10:09:11;2.00;;;1.75;;
16593;SDS011;8410;52.532;13.336;2022-08-01T10:11:42;1.77;;;1.67;;
16593;SDS011;8410;52.532;13.336;2022-08-01T10:14:11;4.00;;;2.55;;
16593;SDS011;8410;52.532;13.336;2022-08-01T10:16:43;2.08;;;1.70;;
16593;SDS011;8410;52.532;13.336;2022-08-01T10:19:30;4.90;;;2.30;;
16593;SDS011;8410;52.532;13.336;2022-08-01T10:21:59;1.83;;;1.65;;
16593;SDS011;8410;52.532;13.336;2022-08-01T10:24:34;1.95;;;1.45;;
16593;SDS011;8410;52.532;13.336;2022-08-01T10:27:07;2.38;;;1.60;;
16593;SDS011;8410;52.532;13.336;2022-08-01T10:29:40;2.25;;;1.80;;
16593;SDS011;8410;52.532;13.336;2022-08-01T10:32:34;5.20;;;2.20;;
16593;SDS011;8410;52.532;13.336;2022-08-01T10:35:05;2.97;;;1.52;;
16593;SDS011;8410;52.532;13.336;2022-08-01T10:37:40;1.75;;;1.65;;
16593;SDS011;8410;52.532;13.336;2022-08-01T10:40:18;1.98;;;1.50;;
16593;SDS011;8410;52.532;13.336;2022-08-01T10:42:57;3.15;;;2.50;;
16593;SDS011;8410;52.532;13.336;2022-08-01T10:45:26;1.98;;;1.70;;
16593;SDS011;8410;52.532;13.336;2022-08-01T10:47:57;3.38;;;1.73;;
16593;SDS011;8410;52.532;13.336;2022-08-01T10:50:37;3.90;;;1.70;;
16593;SDS011;8410;52.532;13.336;2022-08-01T10:53:14;3.92;;;1.63;;
16593;SDS011;8410;52.532;13.336;2022-08-01T10:56:00;1.33;;;1.23;;
16593;SDS011;8410;52.532;13.336;2022-08-01T10:58:35;5.05;;;1.48;;
16593;SDS011;8410;52.532;13.336;2022-08-01T11:01:15;2.13;;;1.42;;
16593;SDS011;8410;52.532;13.336;2022-08-01T11:03:59;2.50;;;1.25;;
16593;SDS011;8410;52.532;13.336;2022-08-01T11:06:41;3.63;;;1.40;;
16593;SDS011;8410;52.532;13.336;2022-08-01T11:09:23;1.60;;;1.50;;
16593;SDS011;8410;52.532;13.336;2022-08-01T11:12:03;2.45;;;1.70;;
16593;SDS011;8410;52.532;13.336;2022-08-01T11:17:56;1.73;;;1.27;;
16593;SDS011;8410;52.532;13.336;2022-08-01T11:20:27;2.90;;;1.42;;
16593;SDS011;8410;52.532;13.336;2022-08-01T11:26:08;5.80;;;1.67;;
16593;SDS011;8410;52.532;13.336;2022-08-01T11:28:39;3.35;;;1.60;;
16593;SDS011;8410;52.532;13.336;2022-08-01T11:31:34;6.68;;;2.47;;
16593;SDS011;8410;52.532;13.336;2022-08-01T11:34:03;10.02;;;3.13;;
16593;SDS011;8410;52.532;13.336;2022-08-01T11:36:31;14.00;;;3.80;;
16593;SDS011;8410;52.532;13.336;2022-08-01T11:39:19;14.23;;;3.05;;
16593;SDS011;8410;52.532;13.336;2022-08-01T11:41:48;5.90;;;2.50;;
16593;SDS011;8410;52.532;13.336;2022-08-01T11:44:17;10.05;;;2.42;;
16593;SDS011;8410;52.532;13.336;2022-08-01T11:46:57;3.78;;;1.83;;
16593;SDS011;8410;52.532;13.336;2022-08-01T11:49:46;2.10;;;1.58;;
16593;SDS011;8410;52.532;13.336;2022-08-01T11:52:24;2.88;;;2.15;;
16593;SDS011;8410;52.532;13.336;2022-08-01T11:54:55;2.22;;;1.95;;
16593;SDS011;8410;52.532;13.336;2022-08-01T11:57:26;2.13;;;1.92;;
16593;SDS011;8410;52.532;13.336;2022-08-01T12:00:03;2.20;;;2.00;;
16593;SDS011;8410;52.532;13.336;2022-08-01T12:02:44;1.90;;;1.80;;
16593;SDS011;8410;52.532;13.336;2022-08-01T12:05:15;1.63;;;1.20;;
16593;SDS011;8410;52.532;13.336;2022-08-01T12:07:50;2.50;;;1.67;;
16593;SDS011;8410;52.532;13.336;2022-08-01T12:10:21;1.77;;;1.10;;
16593;SDS011;8410;52.532;13.336;2022-08-01T12:12:52;2.95;;;1.20;;
16593;SDS011;8410;52.532;13.336;2022-08-01T12:15:23;1.25;;;1.13;;
16593;SDS011;8410;52.532;13.336;2022-08-01T12:17:57;2.22;;;1.10;;
16593;SDS011;8410;52.532;13.336;2022-08-01T12:20:28;1.80;;;1.30;;
16593;SDS011;8410;52.532;13.336;2022-08-01T12:22:59;1.63;;;1.05;;
16593;SDS011;8410;52.532;13.336;2022-08-01T12:25:34;1.88;;;1.05;;
16593;SDS011;8410;52.532;13.336;2022-08-01T12:28:03;0.93;;;0.93;;
16593;SDS011;8410;52.532;13.336;2022-08-01T12:30:33;1.52;;;1.20;;
16593;SDS011;8410;52.532;13.336;2022-08-01T12:33:04;1.50;;;1.35;;
16593;SDS011;8410;52.532;13.336;2022-08-01T12:35:35;3.30;;;1.35;;
16593;SDS011;8410;52.532;13.336;2022-08-01T12:38:06;2.03;;;1.67;;
16593;SDS011;8410;52.532;13.336;2022-08-01T12:40:43;2.42;;;1.45;;
16593;SDS011;8410;52.532;13.336;2022-08-01T12:43:20;2.30;;;1.13;;
16593;SDS011;8410;52.532;13.336;2022-08-01T12:45:54;1.80;;;1.20;;
16593;SDS011;8410;52.532;13.336;2022-08-01T12:48:27;2.35;;;1.20;;
16593;SDS011;8410;52.532;13.336;2022-08-01T12:50:58;1.38;;;1.00;;
16593;SDS011;8410;52.532;13.336;2022-08-01T12:53:33;1.70;;;1.20;;
16593;SDS011;8410;52.532;13.336;2022-08-01T12:56:06;1.77;;;1.00;;
16593;SDS011;8410;52.532;13.336;2022-08-01T12:58:35;1.48;;;1.25;;
16593;SDS011;8410;52.532;13.336;2022-08-01T13:01:04;1.27;;;1.13;;
16593;SDS011;8410;52.532;13.336;2022-08-01T13:03:35;3.58;;;1.30;;
16593;SDS011;8410;52.532;13.336;2022-08-01T13:06:09;1.25;;;1.00;;
16593;SDS011;8410;52.532;13.336;2022-08-01T13:08:41;2.85;;;1.30;;
16593;SDS011;8410;52.532;13.336;2022-08-01T13:11:10;3.78;;;1.30;;
16593;SDS011;8410;52.532;13.336;2022-08-01T13:13:42;2.25;;;1.20;;
16593;SDS011;8410;52.532;13.336;2022-08-01T13:16:13;2.13;;;1.10;;
16593;SDS011;8410;52.532;13.336;2022-08-01T13:19:00;1.75;;;1.10;;
16593;SDS011;8410;52.532;13.336;2022-08-01T13:21:29;2.45;;;1.08;;
16593;SDS011;8410;52.532;13.336;2022-08-01T13:24:22;1.88;;;0.93;;
16593;SDS011;8410;52.532;13.336;2022-08-01T13:26:53;1.58;;;1.10;;
16593;SDS011;8410;52.532;13.336;2022-08-01T13:29:31;4.50;;;1.10;;
16593;SDS011;8410;52.532;13.336;2022-08-01T13:32:11;2.15;;;1.10;;
16593;SDS011;8410;52.532;13.336;2022-08-01T13:35:01;1.52;;;1.20;;
16593;SDS011;8410;52.532;13.336;2022-08-01T13:37:31;1.42;;;1.20;;
16593;SDS011;8410;52.532;13.336;2022-08-01T13:39:59;1.10;;;1.05;;
16593;SDS011;8410;52.532;13.336;2022-08-01T13:42:27;2.38;;;1.10;;
16593;SDS011;8410;52.532;13.336;2022-08-01T13:44:56;2.58;;;1.23;;
16593;SDS011;8410;52.532;13.336;2022-08-01T13:47:25;1.67;;;1.05;;
16593;SDS011;8410;52.532;13.336;2022-08-01T13:49:57;1.30;;;1.08;;
16593;SDS011;8410;52.532;13.336;2022-08-01T13:52:28;3.90;;;1.10;;
16593;SDS011;8410;52.532;13.336;2022-08-01T13:54:57;1.75;;;1.00;;
16593;SDS011;8410;52.532;13.336;2022-08-01T13:57:25;1.25;;;0.90;;
16593;SDS011;8410;52.532;13.336;2022-08-01T14:00:02;1.30;;;1.20;;
16593;SDS011;8410;52.532;13.336;2022-08-01T14:02:32;0.95;;;0.90;;
16593;SDS011;8410;52.532;13.336;2022-08-01T14:05:00;0.95;;;0.90;;
16593;SDS011;8410;52.532;13.336;2022-08-01T14:07:30;1.23;;;0.80;;
16593;SDS011;8410;52.532;13.336;2022-08-01T14:09:58;1.05;;;1.05;;
16593;SDS011;8410;52.532;13.336;2022-08-01T14:12:44;0.60;;;0.60;;
16593;SDS011;8410;52.532;13.336;2022-08-01T14:15:12;0.80;;;0.77;;
16593;SDS011;8410;52.532;13.336;2022-08-01T14:18:00;0.70;;;0.70;;
16593;SDS011;8410;52.532;13.336;2022-08-01T14:20:31;1.10;;;0.82;;
16593;SDS011;8410;52.532;13.336;2022-08-01T14:23:00;0.88;;;0.70;;
16593;SDS011;8410;52.532;13.336;2022-08-01T14:25:33;0.93;;;0.65;;
16593;SDS011;8410;52.532;13.336;2022-08-01T14:28:21;3.55;;;0.80;;
16593;SDS011;8410;52.532;13.336;2022-08-01T14:30:50;3.67;;;0.90;;
16593;SDS011;8410;52.532;13.336;2022-08-01T14:33:18;2.08;;;0.70;;
16593;SDS011;8410;52.532;13.336;2022-08-01T14:35:46;1.10;;;0.77;;
16593;SDS011;8410;52.532;13.336;2022-08-01T14:38:33;1.33;;;0.88;;
16593;SDS011;8410;52.532;13.336;2022-08-01T14:41:01;1.17;;;0.90;;
16593;SDS011;8410;52.532;13.336;2022-08-01T14:43:30;2.85;;;0.80;;
16593;SDS011;8410;52.532;13.336;2022-08-01T14:45:59;1.05;;;0.77;;
16593;SDS011;8410;52.532;13.336;2022-08-01T14:48:29;0.90;;;0.90;;
16593;SDS011;8410;52.532;13.336;2022-08-01T14:50:58;1.85;;;0.90;;
16593;SDS011;8410;52.532;13.336;2022-08-01T14:53:29;0.73;;;0.70;;
16593;SDS011;8410;52.532;13.336;2022-08-01T14:56:02;2.17;;;0.75;;
16593;SDS011;8410;52.532;13.336;2022-08-01T14:58:30;1.35;;;0.88;;
16593;SDS011;8410;52.532;13.336;2022-08-01T15:00:59;1.15;;;1.10;;
16593;SDS011;8410;52.532;13.336;2022-08-01T15:03:27;2.92;;;1.30;;
16593;SDS011;8410;52.532;13.336;2022-08-01T15:05:55;1.73;;;1.20;;
16593;SDS011;8410;52.532;13.336;2022-08-01T15:08:23;1.63;;;1.17;;
16593;SDS011;8410;52.532;13.336;2022-08-01T15:10:51;1.67;;;1.20;;
16593;SDS011;8410;52.532;13.336;2022-08-01T15:13:20;2.92;;;1.40;;
16593;SDS011;8410;52.532;13.336;2022-08-01T15:15:48;1.17;;;0.80;;
16593;SDS011;8410;52.532;13.336;2022-08-01T15:18:16;1.85;;;1.08;;
16593;SDS011;8410;52.532;13.336;2022-08-01T15:20:44;1.10;;;0.75;;
16593;SDS011;8410;52.532;13.336;2022-08-01T15:23:12;2.00;;;0.80;;
16593;SDS011;8410;52.532;13.336;2022-08-01T15:25:40;0.82;;;0.82;;